createdAt,value
2023-02-03T00:01:46.198Z,3.18
2023-02-03T00:04:13.360Z,3.28
2023-02-03T00:06:40.251Z,3.18
2023-02-03T00:09:06.649Z,3.24
2023-02-03T00:11:33.056Z,3.27
2023-02-03T00:13:59.585Z,3.36
2023-02-03T00:16:25.992Z,3.47
2023-02-03T00:18:52.396Z,3.45
2023-02-03T00:21:18.813Z,3.44
2023-02-03T00:23:45.301Z,3.51
2023-02-03T00:26:14.527Z,3.51
2023-02-03T00:28:42.505Z,3.53
2023-02-03T00:31:17.508Z,3.51
2023-02-03T00:33:45.867Z,3.53
2023-02-03T00:36:12.739Z,3.50
2023-02-03T00:38:39.400Z,3.51
2023-02-03T00:41:06.674Z,3.61
2023-02-03T00:43:33.097Z,3.57
2023-02-03T00:45:59.533Z,3.60
2023-02-03T00:48:25.966Z,3.62
2023-02-03T00:50:52.383Z,3.59
2023-02-03T00:53:18.804Z,3.70
2023-02-03T00:55:48.294Z,3.72
2023-02-03T00:58:14.746Z,3.74
2023-02-03T01:00:44.528Z,3.63
2023-02-03T01:03:10.984Z,3.64
2023-02-03T01:05:37.432Z,3.59
2023-02-03T01:08:04.323Z,3.55
2023-02-03T01:10:31.543Z,3.68
2023-02-03T01:12:57.998Z,3.70
2023-02-03T01:15:27.223Z,3.73
2023-02-03T01:17:53.601Z,3.84
2023-02-03T01:20:21.511Z,3.89
2023-02-03T01:22:48.493Z,3.74
2023-02-03T01:25:14.988Z,3.72
2023-02-03T01:27:41.446Z,3.72
2023-02-03T01:30:08.317Z,3.74
2023-02-03T01:32:34.771Z,3.69
2023-02-03T01:35:01.210Z,3.74
2023-02-03T01:37:27.596Z,3.69
2023-02-03T01:39:54.166Z,3.67
2023-02-03T01:42:20.588Z,3.64
2023-02-03T01:44:51.198Z,3.70
2023-02-03T01:47:27.072Z,3.69
2023-02-03T01:50:15.633Z,3.69
2023-02-03T01:52:47.357Z,3.65
2023-02-03T01:55:20.088Z,3.68
2023-02-03T01:58:01.061Z,3.75
2023-02-03T02:00:28.166Z,3.73
2023-02-03T02:02:59.252Z,3.66
2023-02-03T02:05:31.613Z,3.64
2023-02-03T02:08:00.735Z,3.63
2023-02-03T02:10:30.191Z,3.66
2023-02-03T02:12:57.667Z,3.66
2023-02-03T02:15:37.096Z,3.65
2023-02-03T02:18:13.039Z,3.60
2023-02-03T02:21:16.855Z,3.58
2023-02-03T02:24:17.362Z,3.64
2023-02-03T02:27:22.594Z,3.49
2023-02-03T02:30:00.763Z,3.49
2023-02-03T02:33:21.695Z,3.62
2023-02-03T02:35:58.766Z,3.54
2023-02-03T02:38:45.995Z,3.54
2023-02-03T02:41:19.066Z,3.57
2023-02-03T02:44:03.597Z,3.60
2023-02-03T02:46:43.400Z,3.63
2023-02-03T02:49:16.627Z,3.56
2023-02-03T02:56:15.757Z,3.58
2023-02-03T02:58:47.194Z,3.62
2023-02-03T03:01:14.181Z,3.55
2023-02-03T03:03:56.674Z,3.59
2023-02-03T03:06:32.994Z,3.60
2023-02-03T03:09:05.668Z,3.65
2023-02-03T03:11:36.918Z,3.54
2023-02-03T03:14:08.432Z,3.57
2023-02-03T03:16:39.134Z,3.66
2023-02-03T03:19:11.489Z,3.60
2023-02-03T03:21:49.393Z,3.57
2023-02-03T03:24:20.305Z,3.59
2023-02-03T03:26:52.444Z,3.67
2023-02-03T03:29:30.074Z,3.69
2023-02-03T03:31:57.029Z,3.69
2023-02-03T03:34:23.537Z,3.69
2023-02-03T03:37:06.843Z,3.76
2023-02-03T03:39:42.528Z,3.82
2023-02-03T03:42:32.019Z,3.73
2023-02-03T03:45:18.272Z,3.79
2023-02-03T03:48:04.999Z,3.77
2023-02-03T03:50:37.346Z,3.78
2023-02-03T03:53:06.759Z,3.79
2023-02-03T03:55:35.397Z,3.88
2023-02-03T03:58:12.241Z,3.90
2023-02-03T04:00:43.905Z,3.93
2023-02-03T04:03:17.791Z,3.99
2023-02-03T04:05:44.395Z,3.98
2023-02-03T04:08:10.813Z,4.08
2023-02-03T04:10:39.868Z,4.08
2023-02-03T04:13:07.918Z,4.07
2023-02-03T04:15:35.072Z,4.17
2023-02-03T04:18:02.347Z,4.21
2023-02-03T04:20:30.087Z,4.28
2023-02-03T04:22:56.942Z,4.28
2023-02-03T04:25:23.917Z,4.40
2023-02-03T04:27:50.748Z,4.47
2023-02-03T04:30:18.380Z,4.55
2023-02-03T04:32:46.282Z,4.62
2023-02-03T04:35:13.371Z,4.71
2023-02-03T04:37:40.209Z,4.82
2023-02-03T04:40:07.423Z,4.94
2023-02-03T04:42:34.142Z,5.02
2023-02-03T04:45:00.532Z,5.10
2023-02-03T04:47:26.928Z,5.17
2023-02-03T04:49:53.361Z,5.30
2023-02-03T04:52:19.783Z,5.34
2023-02-03T04:54:46.171Z,5.36
2023-02-03T04:57:12.563Z,5.50
2023-02-03T04:59:38.928Z,5.55
2023-02-03T05:02:05.829Z,5.60
2023-02-03T05:04:32.512Z,5.67
2023-02-03T05:06:58.900Z,5.77
2023-02-03T05:09:25.958Z,5.87
2023-02-03T05:11:52.901Z,5.93
2023-02-03T05:14:19.866Z,6.02
2023-02-03T05:16:46.849Z,6.05
2023-02-03T05:19:13.636Z,6.11
2023-02-03T05:21:40.181Z,6.11
2023-02-03T05:24:07.884Z,6.22
2023-02-03T05:26:35.410Z,6.28
2023-02-03T05:29:02.118Z,6.36
2023-02-03T05:31:28.575Z,6.39
2023-02-03T05:33:55.378Z,6.40
2023-02-03T05:36:21.863Z,6.49
2023-02-03T05:38:48.267Z,6.51
2023-02-03T05:41:33.155Z,6.54
2023-02-03T05:43:59.541Z,6.60
2023-02-03T05:46:26.356Z,6.61
2023-02-03T05:48:52.745Z,6.65
2023-02-03T05:51:19.148Z,6.74
2023-02-03T05:53:45.580Z,6.78
2023-02-03T05:56:12.037Z,6.83
2023-02-03T05:58:38.463Z,6.89
2023-02-03T06:01:04.907Z,6.91
2023-02-03T06:03:31.356Z,6.90
2023-02-03T06:05:58.909Z,6.95
2023-02-03T06:08:28.506Z,6.97
2023-02-03T06:11:00.247Z,6.99
2023-02-03T06:13:27.008Z,6.97
2023-02-03T06:15:53.495Z,7.05
2023-02-03T06:18:20.056Z,7.09
2023-02-03T06:20:46.504Z,7.07
2023-02-03T06:23:12.962Z,7.22
2023-02-03T06:25:39.373Z,7.17
2023-02-03T06:28:05.849Z,7.22
2023-02-03T06:30:41.330Z,7.28
2023-02-03T06:33:08.130Z,7.28
2023-02-03T06:35:34.717Z,7.24
2023-02-03T06:38:01.115Z,7.33
2023-02-03T06:40:27.988Z,7.30
2023-02-03T06:42:54.669Z,7.32
2023-02-03T06:45:21.156Z,7.31
2023-02-03T06:47:47.618Z,7.39
2023-02-03T06:50:16.196Z,7.42
2023-02-03T06:52:42.695Z,7.49
2023-02-03T06:55:09.469Z,7.45
2023-02-03T06:57:35.891Z,7.41
2023-02-03T07:00:02.511Z,7.45
2023-02-03T07:02:28.995Z,7.43
2023-02-03T07:04:55.444Z,7.51
2023-02-03T07:07:21.864Z,7.53
2023-02-03T07:09:48.258Z,7.54
2023-02-03T07:12:14.710Z,7.57
2023-02-03T07:14:41.109Z,7.57
2023-02-03T07:17:07.531Z,7.52
2023-02-03T07:19:33.925Z,7.46
2023-02-03T07:22:00.345Z,7.53
2023-02-03T07:24:30.259Z,7.58
2023-02-03T07:26:56.948Z,7.53
2023-02-03T07:29:23.424Z,7.61
2023-02-03T07:31:49.906Z,7.54
2023-02-03T07:34:16.404Z,7.56
2023-02-03T07:36:42.831Z,7.60
2023-02-03T07:39:09.201Z,7.56
2023-02-03T07:41:35.687Z,7.61
2023-02-03T07:44:02.076Z,7.54
2023-02-03T07:46:28.566Z,7.61
2023-02-03T07:48:54.998Z,7.67
2023-02-03T07:51:21.396Z,7.63
2023-02-03T07:53:47.786Z,7.65
2023-02-03T07:56:14.258Z,7.62
2023-02-03T07:58:40.711Z,7.65
2023-02-03T08:01:15.673Z,7.62
2023-02-03T08:03:43.223Z,7.62
2023-02-03T08:06:10.073Z,7.72
2023-02-03T08:08:36.512Z,7.70
2023-02-03T08:11:02.938Z,7.63
2023-02-03T08:13:29.319Z,7.71
2023-02-03T08:15:55.727Z,7.70
2023-02-03T08:18:22.537Z,7.63
2023-02-03T08:20:49.468Z,7.69
2023-02-03T08:23:16.023Z,7.74
2023-02-03T08:25:42.542Z,7.70
2023-02-03T08:28:09.068Z,7.66
2023-02-03T08:30:35.563Z,7.75
2023-02-03T08:33:02.087Z,7.67
2023-02-03T08:35:28.824Z,7.74
2023-02-03T08:37:55.554Z,7.73
2023-02-03T08:40:22.013Z,7.75
2023-02-03T08:42:48.459Z,7.76
2023-02-03T08:45:14.916Z,7.78
2023-02-03T08:47:41.345Z,7.75
2023-02-03T08:50:09.162Z,7.76
2023-02-03T08:52:35.829Z,7.81
2023-02-03T08:55:02.307Z,7.75
2023-02-03T08:57:32.846Z,7.90
2023-02-03T08:59:59.265Z,7.85
2023-02-03T09:02:25.684Z,7.82
2023-02-03T09:04:52.188Z,7.83
2023-02-03T09:07:18.917Z,7.84
2023-02-03T09:09:45.351Z,7.90
2023-02-03T09:12:12.990Z,7.90
2023-02-03T09:14:39.524Z,7.90
2023-02-03T09:17:08.211Z,7.92
2023-02-03T09:19:36.501Z,7.89
2023-02-03T09:22:03.355Z,7.90
2023-02-03T09:24:29.977Z,7.96
2023-02-03T09:26:57.221Z,7.89
2023-02-03T09:29:23.593Z,7.98
2023-02-03T09:31:52.723Z,8.02
2023-02-03T09:34:20.534Z,8.06
2023-02-03T09:36:47.478Z,8.02
2023-02-03T09:39:13.987Z,8.11
2023-02-03T09:41:51.415Z,8.18
2023-02-03T09:44:25.060Z,8.14
2023-02-03T09:46:57.124Z,8.16
2023-02-03T09:49:32.555Z,8.18
2023-02-03T09:52:17.623Z,8.18
2023-02-03T09:54:56.948Z,8.24
2023-02-03T09:57:26.407Z,8.19
2023-02-03T09:59:56.202Z,8.29
2023-02-03T10:02:37.371Z,8.25
2023-02-03T10:05:30.686Z,8.29
2023-02-03T10:08:19.738Z,8.35
2023-02-03T10:11:24.175Z,8.36
2023-02-03T10:14:02.868Z,8.36
2023-02-03T10:16:35.738Z,8.33
2023-02-03T10:19:11.212Z,8.39
2023-02-03T10:21:43.183Z,8.42
2023-02-03T10:24:15.341Z,8.41
2023-02-03T10:26:42.469Z,8.42
2023-02-03T10:29:21.326Z,8.44
2023-02-03T10:31:48.354Z,8.48
2023-02-03T10:34:17.184Z,8.54
2023-02-03T10:36:52.453Z,8.53
2023-02-03T10:39:35.611Z,8.63
2023-02-03T10:42:04.247Z,8.58
2023-02-03T10:44:39.419Z,8.60
2023-02-03T10:47:21.778Z,8.61
2023-02-03T10:49:51.133Z,8.62
2023-02-03T10:52:28.866Z,8.56
2023-02-03T10:54:56.475Z,8.51
2023-02-03T10:57:23.073Z,8.52
2023-02-03T10:59:49.929Z,8.36
2023-02-03T11:02:29.393Z,8.38
2023-02-03T11:05:17.384Z,8.31
2023-02-03T11:07:45.103Z,8.33
2023-02-03T11:10:36.040Z,8.13
2023-02-03T11:13:25.743Z,8.02
2023-02-03T11:16:03.049Z,7.97
2023-02-03T11:18:52.624Z,7.99
2023-02-03T11:21:25.709Z,7.98
2023-02-03T11:23:56.250Z,8.01
2023-02-03T11:26:27.539Z,7.93
2023-02-03T11:28:58.681Z,7.92
2023-02-03T11:31:28.751Z,7.95
2023-02-03T11:33:58.935Z,7.98
2023-02-03T11:36:27.371Z,7.94
2023-02-03T11:39:09.492Z,8.01
2023-02-03T11:41:40.154Z,8.07
2023-02-03T11:44:21.679Z,8.04
2023-02-03T11:46:57.685Z,8.10
2023-02-03T11:49:34.418Z,8.15
2023-02-03T11:52:17.611Z,8.19
2023-02-03T11:55:32.622Z,8.22
2023-02-03T11:58:25.905Z,8.26
2023-02-03T12:01:08.630Z,8.27
2023-02-03T12:04:08.057Z,8.31
2023-02-03T12:07:03.262Z,8.35
2023-02-03T12:09:55.368Z,8.47
2023-02-03T12:12:21.704Z,8.50
2023-02-03T12:14:58.510Z,8.60
2023-02-03T12:17:56.018Z,8.67
2023-02-03T12:20:43.513Z,8.81
2023-02-03T12:23:25.440Z,8.90
2023-02-03T12:26:10.515Z,8.93
2023-02-03T12:28:50.039Z,8.80
2023-02-03T12:31:27.416Z,8.81
2023-02-03T12:34:01.649Z,8.76
2023-02-03T12:36:32.837Z,8.83
2023-02-03T12:39:20.336Z,8.94
2023-02-03T12:41:55.088Z,8.94
2023-02-03T12:44:40.133Z,9.05
2023-02-03T12:47:26.524Z,9.06
2023-02-03T12:50:09.506Z,9.06
2023-02-03T12:52:51.276Z,9.02
2023-02-03T12:55:25.578Z,9.06
2023-02-03T12:58:00.724Z,9.02
2023-02-03T13:00:46.036Z,8.86
2023-02-03T13:03:21.823Z,8.19
2023-02-03T13:06:10.893Z,7.67
2023-02-03T13:08:41.703Z,7.12
2023-02-03T13:11:27.660Z,6.86
2023-02-03T13:14:04.543Z,6.76
2023-02-03T13:16:37.642Z,6.56
2023-02-03T13:19:13.525Z,6.46
2023-02-03T13:21:40.020Z,6.36
2023-02-03T13:24:07.034Z,6.35
2023-02-03T13:26:33.368Z,6.49
2023-02-03T13:28:59.739Z,6.38
2023-02-03T13:31:40.905Z,6.21
2023-02-03T13:34:31.940Z,6.38
2023-02-03T13:37:11.731Z,6.36
2023-02-03T13:39:53.213Z,6.57
2023-02-03T13:42:24.921Z,6.51
2023-02-03T13:44:57.039Z,6.45
2023-02-03T13:47:29.567Z,6.41
2023-02-03T13:50:01.209Z,6.41
2023-02-03T13:52:34.195Z,6.49
2023-02-03T13:55:01.565Z,6.56
2023-02-03T13:57:37.585Z,6.71
2023-02-03T14:00:27.283Z,6.72
2023-02-03T14:02:56.036Z,6.73
2023-02-03T14:06:01.695Z,6.79
2023-02-03T14:08:28.144Z,6.83
2023-02-03T14:11:32.220Z,6.93
2023-02-03T14:14:07.512Z,6.88
2023-02-03T14:16:35.625Z,6.98
2023-02-03T14:19:02.559Z,7.06
2023-02-03T14:21:38.809Z,7.04
2023-02-03T14:24:16.657Z,7.12
2023-02-03T14:26:51.975Z,7.29
2023-02-03T14:29:30.746Z,7.42
2023-02-03T14:32:08.892Z,7.59
2023-02-03T14:34:50.331Z,7.70
2023-02-03T14:37:26.668Z,7.79
2023-02-03T14:39:55.827Z,7.76
2023-02-03T14:42:45.580Z,7.77
2023-02-03T14:45:33.522Z,7.81
2023-02-03T14:48:48.268Z,7.78
2023-02-03T14:51:39.455Z,7.76
2023-02-03T14:54:24.650Z,7.74
2023-02-03T14:57:26.595Z,7.73
2023-02-03T15:00:02.029Z,7.74
2023-02-03T15:02:31.096Z,7.72
2023-02-03T15:05:17.543Z,7.72
2023-02-03T15:07:49.501Z,7.75
2023-02-03T15:10:38.917Z,7.82
2023-02-03T15:13:05.320Z,7.70
2023-02-03T15:15:38.872Z,7.74
2023-02-03T15:18:28.301Z,7.71
2023-02-03T15:20:56.236Z,7.77
2023-02-03T15:23:28.704Z,7.76
2023-02-03T15:26:02.338Z,7.72
2023-02-03T15:28:30.167Z,7.77
2023-02-03T15:31:20.577Z,7.68
2023-02-03T15:33:49.925Z,7.71
2023-02-03T15:36:22.965Z,7.68
2023-02-03T15:39:04.868Z,7.65
2023-02-03T15:41:31.457Z,7.68
2023-02-03T15:44:06.572Z,7.68
2023-02-03T15:46:40.967Z,7.72
2023-02-03T15:49:18.023Z,7.63
2023-02-03T15:51:51.761Z,7.59
2023-02-03T15:54:31.664Z,7.61
2023-02-03T15:57:07.354Z,7.57
2023-02-03T15:59:42.391Z,7.47
2023-02-03T16:02:29.752Z,7.54
2023-02-03T16:04:56.888Z,7.51
2023-02-03T16:07:25.761Z,7.47
2023-02-03T16:09:53.553Z,7.46
2023-02-03T16:12:33.138Z,7.50
2023-02-03T16:15:01.923Z,7.45
2023-02-03T16:17:35.540Z,7.55
2023-02-03T16:20:11.028Z,7.52
2023-02-03T16:22:46.707Z,7.50
2023-02-03T16:25:23.819Z,7.49
2023-02-03T16:28:31.793Z,7.42
2023-02-03T16:31:29.203Z,7.47
2023-02-03T16:34:14.179Z,7.41
2023-02-03T16:37:01.520Z,7.43
2023-02-03T16:39:47.019Z,7.50
2023-02-03T16:42:41.404Z,7.48
2023-02-03T16:45:34.386Z,7.54
2023-02-03T16:48:20.881Z,7.45
2023-02-03T16:50:51.804Z,7.48
2023-02-03T16:53:27.501Z,7.51
2023-02-03T16:55:56.395Z,7.56
2023-02-03T16:58:23.453Z,7.59
2023-02-03T17:00:52.029Z,7.58
2023-02-03T17:03:21.442Z,7.57
2023-02-03T17:05:49.457Z,7.63
2023-02-03T17:08:17.662Z,7.55
2023-02-03T17:10:44.871Z,7.58
2023-02-03T17:13:12.447Z,7.58
2023-02-03T17:15:41.138Z,7.73
2023-02-03T17:18:07.872Z,7.65
2023-02-03T17:20:34.540Z,7.62
2023-02-03T17:23:00.925Z,7.60
2023-02-03T17:25:27.642Z,7.62
2023-02-03T17:27:54.372Z,7.57
2023-02-03T17:30:21.254Z,7.56
2023-02-03T17:32:47.642Z,7.64
2023-02-03T17:35:14.040Z,7.58
2023-02-03T17:37:40.486Z,7.62
2023-02-03T17:54:04.809Z,7.47
2023-02-03T17:56:31.591Z,7.55
2023-02-03T17:59:00.701Z,7.58
2023-02-03T18:01:27.477Z,7.56
2023-02-03T18:04:02.756Z,7.55
2023-02-03T18:06:31.405Z,7.56
2023-02-03T18:09:02.354Z,7.57
2023-02-03T18:11:30.908Z,7.57
2023-02-03T18:13:57.782Z,7.54
2023-02-03T18:16:28.874Z,7.51
2023-02-03T18:18:56.079Z,7.54
2023-02-03T18:21:24.332Z,7.51
2023-02-03T18:23:51.185Z,7.62
2023-02-03T18:26:19.684Z,7.57
2023-02-03T18:28:46.376Z,7.59
2023-02-03T18:31:17.413Z,7.57
2023-02-03T18:33:46.163Z,7.58
2023-02-03T18:36:13.402Z,7.58
2023-02-03T18:38:41.634Z,7.52
2023-02-03T18:41:11.643Z,7.56
2023-02-03T18:43:38.039Z,7.56
2023-02-03T18:46:09.495Z,7.51
2023-02-03T18:48:36.507Z,7.50
2023-02-03T18:51:02.965Z,7.50
2023-02-03T18:53:29.726Z,7.50
2023-02-03T18:55:56.107Z,7.54
2023-02-03T18:58:22.494Z,7.60
2023-02-03T19:00:48.949Z,7.55
2023-02-03T19:03:15.335Z,7.52
2023-02-03T19:05:42.928Z,7.53
2023-02-03T19:08:09.313Z,7.45
2023-02-03T19:10:36.275Z,7.54
2023-02-03T19:13:02.674Z,7.38
2023-02-03T19:15:29.110Z,7.26
2023-02-03T19:17:55.541Z,7.39
2023-02-03T19:20:21.957Z,7.32
2023-02-03T19:22:48.337Z,7.36
2023-02-03T19:25:14.788Z,7.30
2023-02-03T19:27:41.279Z,7.35
2023-02-03T19:30:08.460Z,7.35
2023-02-03T19:32:34.856Z,7.42
2023-02-03T19:35:01.276Z,7.44
2023-02-03T19:37:27.717Z,7.36
2023-02-03T19:39:54.091Z,7.33
2023-02-03T19:42:20.525Z,7.25
2023-02-03T19:44:46.919Z,7.32
2023-02-03T19:47:13.466Z,7.25
2023-02-03T19:49:39.868Z,7.16
2023-02-03T19:52:08.944Z,7.10
2023-02-03T19:54:35.759Z,6.99
2023-02-03T19:57:02.303Z,6.94
2023-02-03T19:59:28.697Z,6.99
2023-02-03T20:01:56.634Z,6.85
2023-02-03T20:04:24.864Z,6.95
2023-02-03T20:06:51.257Z,6.88
2023-02-03T20:09:17.627Z,6.94
2023-02-03T20:11:44.020Z,6.98
2023-02-03T20:14:12.441Z,7.01
2023-02-03T20:16:38.856Z,6.98
2023-02-03T20:19:05.242Z,6.99
2023-02-03T20:21:31.677Z,6.99
2023-02-03T20:23:58.124Z,6.96
2023-02-03T20:26:24.525Z,6.85
2023-02-03T20:28:50.933Z,6.90
2023-02-03T20:31:17.431Z,6.87
2023-02-03T20:33:43.986Z,6.87
2023-02-03T20:36:11.507Z,6.88
2023-02-03T20:38:38.007Z,6.81
2023-02-03T20:41:08.804Z,6.88
2023-02-03T20:43:35.253Z,6.81
2023-02-03T20:46:01.688Z,6.79
2023-02-03T20:48:28.170Z,6.68
2023-02-03T20:50:54.629Z,6.73
2023-02-03T20:53:25.757Z,6.72
2023-02-03T20:55:57.187Z,6.67
2023-02-03T20:58:27.876Z,6.72
2023-02-03T21:00:57.214Z,6.77
2023-02-03T21:03:43.103Z,6.71
2023-02-03T21:06:14.699Z,6.75
2023-02-03T21:08:41.206Z,6.68
2023-02-03T21:11:13.420Z,6.74
2023-02-03T21:13:41.303Z,6.68
2023-02-03T21:16:24.177Z,6.76
2023-02-03T21:18:52.895Z,6.68
2023-02-03T21:21:39.370Z,6.68
2023-02-03T21:24:36.535Z,6.53
2023-02-03T21:27:31.718Z,6.38
2023-02-03T21:30:21.938Z,6.39
2023-02-03T21:32:48.377Z,6.25
2023-02-03T21:35:28.683Z,6.05
2023-02-03T21:38:02.020Z,6.07
2023-02-03T21:40:31.285Z,6.09
2023-02-03T21:42:59.523Z,6.00
2023-02-03T21:45:34.224Z,5.90
2023-02-03T21:48:02.644Z,5.64
2023-02-03T21:50:32.684Z,5.54
2023-02-03T21:53:05.415Z,5.36
2023-02-03T21:55:31.832Z,5.36
2023-02-03T21:57:58.335Z,5.46
2023-02-03T22:00:35.297Z,5.36
2023-02-03T22:03:02.218Z,5.40
2023-02-03T22:05:28.673Z,5.27
2023-02-03T22:07:55.182Z,5.27
2023-02-03T22:10:30.735Z,5.11
2023-02-03T22:12:57.296Z,5.17
2023-02-03T22:15:23.732Z,5.05
2023-02-03T22:17:50.947Z,5.12
2023-02-03T22:20:17.556Z,5.02
2023-02-03T22:22:43.968Z,5.17
2023-02-03T22:25:10.435Z,5.00
2023-02-03T22:27:36.960Z,4.86
2023-02-03T22:30:09.004Z,4.79
2023-02-03T22:32:35.409Z,4.94
2023-02-03T22:35:01.836Z,4.81
2023-02-03T22:37:28.354Z,4.80
2023-02-03T22:39:54.800Z,4.70
2023-02-03T22:42:22.323Z,4.71
2023-02-03T22:44:48.764Z,4.61
2023-02-03T22:47:15.174Z,4.74
2023-02-03T22:49:41.560Z,4.67
2023-02-03T22:52:07.951Z,4.71
2023-02-03T22:54:36.739Z,4.65
2023-02-03T22:57:03.218Z,4.71
2023-02-03T22:59:29.617Z,4.54
2023-02-03T23:01:56.025Z,4.67
2023-02-03T23:04:23.085Z,4.56
2023-02-03T23:06:49.514Z,4.69
2023-02-03T23:09:15.995Z,4.67
2023-02-03T23:11:42.422Z,4.63
2023-02-03T23:14:10.092Z,4.68
2023-02-03T23:16:36.937Z,4.65
2023-02-03T23:19:04.012Z,4.69
2023-02-03T23:21:30.492Z,4.68
2023-02-03T23:23:56.906Z,4.64
2023-02-03T23:26:23.288Z,4.69
2023-02-03T23:28:49.893Z,4.58
2023-02-03T23:31:16.576Z,4.60
2023-02-03T23:34:03.060Z,4.69
2023-02-03T23:36:29.442Z,4.63
2023-02-03T23:38:55.824Z,4.66
2023-02-03T23:41:22.206Z,4.56
2023-02-03T23:43:48.630Z,4.60
2023-02-03T23:46:15.128Z,4.52
2023-02-03T23:48:41.547Z,4.55
2023-02-03T23:51:08.107Z,4.53
2023-02-03T23:53:34.515Z,4.45
2023-02-03T23:56:00.915Z,4.43
2023-02-03T23:58:28.029Z,4.49
